Etusivu
METAR-TAF:

METAR-TAF

Lentoasemat :

Rabat, Marokko

Leveyspiiri: 34-03N, Pituuspiiri: 006-46W, korkeus merenpinnasta: 84 m

Tämänhetkinen sää

Tämä raportti tehtiin 10 minuuttia sitten, kello 23.00 UTC
Tuuli 2 kn eri suunnista
Lämpötila 15°C
Kosteus 82%
Ilmanpaine 1016 hPa
Näkyvyys: 8000 m
Hajanaisia pilviä 1300 ft:n korkeudessa
Hajanaisia pilviä 2000 ft:n korkeudessa

METAR: GMME 242300Z VRB02KT 8000 SCT013 SCT020 15/12 Q1016 NOSIG

Aika: 23:10 (23:10 UTC)

Sääennuste

Tämä raportti tehtiin 6 tuntia ja 10 minuuttia sitten, kello 17.00 UTC
Ennuste voimassa 24. päivästä klo 18 UTC - 25. päivään klo 24 UTC
Tuuli 10 kn lounaasta
Näkyvyys: 8000 m
Hajonneita pilviä 1300 ft:n korkeudessa
Hajonneita pilviä 1600 ft:n korkeudessa
Tulossa
25. päivästä klo 10 UTC - 25. päivään klo 12 UTC
Tuuli 12 kn pohjoisen/luoteesta
Hajanaisia pilviä 1300 ft:n korkeudessa

TAF: GMME 241700Z 2418/2524 22010KT 8000 BKN013 BKN016 BECMG 2510/2512 34012KT SCT013

Säähavainnot ja -ennusteet yli 4000 lentoasemalta (METAR- ja TAF-raportit).

Käytössä olevat sääasemat on merkitty karttaan keltaisilla ja punaisilla pisteillä.

Aseta hiiri pisteen päälle nähdäksesi sääaseman nimen.

Klikkaa sitten nähdäksesi säähavainnot ja -ennusteet.

Kartan vaihtaminen: klikkaa mustalla rastilla varustettuja vihreitä pisteitä, niin voit zoomata sisään; viivalla varustettua vihreää pistettä, niin voit zoomata ulos tai vihreitä nuolia, niin pääset viereisille kartoille.


METAR-TAF: